Flight Track Log - Related Links

Times and Time Zones

All times are in EDT time to prevent confusion due to time zone crossing. See the UPS1331 flight status page for this flight to view local times or setup timezone preferences in your user account.

Time Position Orientation Groundspeed Altitude Reporting Facility
EDT Latitude Longitude Course Direction KTS MPH feet Rate Location/Type
Wed 10:26:12 PM 25.8020 -80.2800 360° North 125 144  Level FlightAware ADS-B
Wed 10:26:29 PM 25.8010 -80.2940 265° West 170 196 400 2,057 Climbing FlightAware ADS-B
Wed 10:26:47 PM 25.8000 -80.3100 266° West 176 203 1,200 1,946 Climbing FlightAware ADS-B
Wed 10:27:06 PM 25.7980 -80.3280 263° West 197 227 1,600 1,500 Climbing FlightAware ADS-B
Wed 10:27:27 PM 25.7950 -80.3530 262° West 231 266 2,200 2,053 Climbing FlightAware ADS-B
Wed 10:27:44 PM 25.7930 -80.3710 263° West 242 278 2,900 2,757 Climbing FlightAware ADS-B
Wed 10:28:04 PM 25.7910 -80.3980 265° West 251 289 3,900 2,553 Climbing FlightAware ADS-B
Wed 10:28:31 PM 25.7960 -80.4310 280° West 276 318 4,900 2,500 Climbing FlightAware ADS-B
Wed 10:28:40 PM 25.8030 -80.4420 305° West 276 318 5,400 3,000 Climbing FlightAware ADS-B
Wed 10:28:51 PM 25.8140 -80.4500 327° Northwest 273 314 5,900 3,231 Climbing FlightAware ADS-B
Wed 10:29:06 PM 25.8320 -80.4570 341° North 265 305 6,800 3,167 Climbing FlightAware ADS-B
Wed 10:29:27 PM 25.8580 -80.4640 346° North 272 313 7,800 2,780 Climbing FlightAware ADS-B
Wed 10:29:47 PM 25.8840 -80.4720 345° North 279 321 8,700 2,550 Climbing FlightAware ADS-B
Wed 10:30:07 PM 25.9110 -80.4770 351° North 291 335 9,500 2,215 Climbing FlightAware ADS-B
Wed 10:30:52 PM 25.9710 -80.4930 347° North 319 367 11,100 1,975 Climbing FlightAware ADS-B
Wed 10:31:26 PM 26.0280 -80.5100 345° North 370 426 12,100 2,451 Climbing FlightAware ADS-B
Wed 10:32:03 PM 26.0890 -80.5310 343° North 387 445 14,000 3,205 Climbing FlightAware ADS-B
Wed 10:32:39 PM 26.1520 -80.5510 344° North 386 444 16,000 3,313 Climbing FlightAware ADS-B
Wed 10:33:10 PM 26.2070 -80.5690 344° North 403 464 17,700 3,091 Climbing FlightAware ADS-B
Wed 10:33:45 PM 26.2720 -80.5890 345° North 405 466 19,400 2,789 Climbing FlightAware ADS-B
Wed 10:34:21 PM 26.3400 -80.6100 345° North 415 478 21,000 2,667 Climbing FlightAware ADS-B
Wed 10:34:57 PM 26.4080 -80.6310 345° North 432 497 22,600 2,776 Climbing FlightAware ADS-B
Wed 10:35:28 PM 26.4670 -80.6500 344° North 433 498 24,100 2,789 Climbing FlightAware ADS-B
Wed 10:36:08 PM 26.5450 -80.6740 345° North 434 499 25,900 2,260 Climbing FlightAware ADS-B
Wed 10:36:45 PM 26.6130 -80.6950 345° North 438 504 27,000 1,676 Climbing FlightAware ADS-B
Wed 10:37:16 PM 26.6810 -80.7160 345° North 449 517 27,800 1,522 Climbing FlightAware ADS-B
Wed 10:37:52 PM 26.7550 -80.7390 344° North 469 540 28,700 1,726 Climbing FlightAware ADS-B
Wed 10:38:29 PM 26.8330 -80.7640 344° North 468 539 29,900 2,294 Climbing FlightAware ADS-B
Wed 10:39:00 PM 26.8980 -80.7840 345° North 467 537 31,300 2,294 Climbing FlightAware ADS-B
Wed 10:39:37 PM 26.9760 -80.8080 345° North 466 536 32,500 2,466 Climbing FlightAware ADS-B
Wed 10:40:13 PM 27.0480 -80.8310 344° North 447 514 34,300 1,973 Climbing FlightAware ADS-B
Wed 10:40:50 PM 27.1220 -80.8540 345° North 451 519 34,900 618 Climbing FlightAware ADS-B
Wed 10:41:21 PM 27.1880 -80.8750 344° North 463 533 35,000 88 Climbing FlightAware ADS-B
Wed 10:41:58 PM 27.2620 -80.8990 344° North 453 521 35,000  Level FlightAware ADS-B
Wed 10:42:34 PM 27.3360 -80.9220 345° North 452 520 35,000  Level FlightAware ADS-B
Wed 10:43:05 PM 27.4030 -80.9430 344° North 453 521 35,000  Level FlightAware ADS-B
Wed 10:43:43 PM 27.4790 -80.9670 344° North 452 520 35,000  Level FlightAware ADS-B
Wed 10:44:19 PM 27.5460 -80.9890 344° North 451 519 35,000  Level FlightAware ADS-B
Wed 10:44:49 PM 27.6170 -81.0110 345° North 450 518 35,000  Level FlightAware ADS-B
Wed 10:45:25 PM 27.6860 -81.0330 344° North 449 517 35,000  Level FlightAware ADS-B
Wed 10:46:01 PM 27.7620 -81.0570 344° North 454 522 35,000  Level FlightAware ADS-B
Wed 10:46:41 PM 27.8440 -81.0830 344° North 451 519 35,000  Level FlightAware ADS-B
Wed 10:47:13 PM 27.9100 -81.1040 344° North 449 517 35,000 88 Level FlightAware ADS-B
Wed 10:47:49 PM 27.9800 -81.1270 344° North 447 514 35,100  Climbing FlightAware ADS-B
Wed 10:48:25 PM 28.0530 -81.1500 344° North 446 513 35,000 -88 Descending FlightAware ADS-B
Wed 10:48:57 PM 28.1180 -81.1710 344° North 444 511 35,000  Level FlightAware ADS-B
Wed 10:49:34 PM 28.1910 -81.1950 344° North 444 511 35,000  Level FlightAware ADS-B
Wed 10:50:09 PM 28.2590 -81.2170 344° North 443 510 35,000  Level FlightAware ADS-B
Wed 10:50:45 PM 28.3310 -81.2400 344° North 442 509 35,000  Level FlightAware ADS-B
Wed 10:51:19 PM 28.3970 -81.2610 344° North 440 506 35,000  Level FlightAware ADS-B
Wed 10:51:54 PM 28.4660 -81.2830 344° North 439 505 35,000  Level FlightAware ADS-B
Wed 10:52:27 PM 28.5290 -81.3040 344° North 438 504 35,000  Level FlightAware ADS-B
Wed 10:53:02 PM 28.5980 -81.3260 344° North 437 503 35,000  Level FlightAware ADS-B
Wed 10:53:38 PM 28.6690 -81.3490 344° North 437 503 35,000  Level FlightAware ADS-B
Wed 10:54:15 PM 28.7390 -81.3720 344° North 435 501 35,000  Level FlightAware ADS-B
Wed 10:54:50 PM 28.8080 -81.3940 344° North 432 497 35,000  Level FlightAware ADS-B
Wed 10:55:23 PM 28.8710 -81.4150 344° North 431 496 35,000  Level FlightAware ADS-B
Wed 10:55:58 PM 28.9380 -81.4370 344° North 429 494 35,000  Level FlightAware ADS-B
Wed 10:56:35 PM 29.0090 -81.4600 344° North 427 491 35,000  Level FlightAware ADS-B
Wed 10:57:10 PM 29.0760 -81.4810 345° North 425 489 35,000  Level FlightAware ADS-B
Wed 10:57:41 PM 29.1360 -81.5010 344° North 424 488 35,000  Level FlightAware ADS-B
Wed 10:58:19 PM 29.2060 -81.5240 344° North 423 487 35,000  Level FlightAware ADS-B
Wed 10:58:54 PM 29.2720 -81.5460 344° North 421 484 35,000  Level FlightAware ADS-B
Wed 10:59:31 PM 29.3360 -81.5670 344° North 421 484 35,000  Level FlightAware ADS-B
Wed 11:00:03 PM 29.3990 -81.5880 344° North 421 484 35,000  Level FlightAware ADS-B
Wed 11:00:29 PM 29.4500 -81.6040 345° North 422 486 35,000  Level FlightAware ADS-B
Wed 11:01:07 PM 29.5230 -81.6280 344° North 429 494 35,000  Level FlightAware ADS-B
Wed 11:01:42 PM 29.5900 -81.6510 343° North 432 497 35,000  Level FlightAware ADS-B
Wed 11:02:15 PM 29.6510 -81.6710 344° North 433 498 35,000  Level FlightAware ADS-B
Wed 11:02:51 PM 29.7230 -81.6950 344° North 433 498 35,000  Level FlightAware ADS-B
Wed 11:03:26 PM 29.7890 -81.7160 345° North 433 498 35,000  Level FlightAware ADS-B
Wed 11:04:03 PM 29.8620 -81.7410 343° North 432 497 35,000  Level FlightAware ADS-B
Wed 11:04:36 PM 29.9250 -81.7620 344° North 431 496 35,000  Level FlightAware ADS-B
Wed 11:05:12 PM 29.9940 -81.7850 344° North 430 495 35,000  Level FlightAware ADS-B
Wed 11:05:48 PM 30.0620 -81.8070 344° North 427 491 35,000  Level FlightAware ADS-B
Wed 11:06:20 PM 30.1230 -81.8280 343° North 427 491 35,000  Level FlightAware ADS-B
Wed 11:06:57 PM 30.1930 -81.8510 344° North 426 490 35,000  Level FlightAware ADS-B
Wed 11:07:34 PM 30.2630 -81.8750 344° North 426 490 35,000  Level FlightAware ADS-B
Wed 11:08:06 PM 30.3250 -81.8950 344° North 426 490 35,000  Level FlightAware ADS-B
Wed 11:08:41 PM 30.3910 -81.9180 343° North 427 491 35,000  Level FlightAware ADS-B
Wed 11:09:19 PM 30.4620 -81.9420 344° North 426 490 35,000  Level FlightAware ADS-B
Wed 11:09:51 PM 30.5250 -81.9630 344° North 425 489 35,000  Level FlightAware ADS-B
Wed 11:10:26 PM 30.5910 -81.9850 344° North 425 489 35,000  Level FlightAware ADS-B
Wed 11:11:00 PM 30.6550 -82.0070 344° North 425 489 35,000  Level FlightAware ADS-B
Wed 11:11:45 PM 30.7380 -82.0350 344° North 426 490 35,000  Level FlightAware ADS-B
Wed 11:12:21 PM 30.8070 -82.0580 344° North 427 491 35,000  Level FlightAware ADS-B
Wed 11:12:56 PM 30.8720 -82.0800 344° North 428 493 35,000  Level FlightAware ADS-B
Wed 11:13:29 PM 30.9360 -82.1020 344° North 429 494 35,000  Level FlightAware ADS-B
Wed 11:14:08 PM 31.0060 -82.1260 344° North 429 494 35,000  Level FlightAware ADS-B
Wed 11:14:47 PM 31.0810 -82.1510 344° North 430 495 35,000  Level FlightAware ADS-B
Wed 11:15:24 PM 31.1580 -82.1780 343° North 431 496 35,000  Level FlightAware ADS-B
Wed 11:16:00 PM 31.2250 -82.2010 344° North 432 497 35,000  Level FlightAware ADS-B
Wed 11:16:33 PM 31.2880 -82.2220 344° North 432 497 35,000  Level FlightAware ADS-B
Wed 11:17:18 PM 31.3740 -82.2520 343° North 432 497 35,000  Level FlightAware ADS-B
Wed 11:17:57 PM 31.4510 -82.2780 344° North 433 498 35,000  Level FlightAware ADS-B
Wed 11:18:41 PM 31.5360 -82.3080 343° North 433 498 35,000  Level FlightAware ADS-B
Wed 11:19:24 PM 31.6090 -82.3330 344° North 433 498 35,000  Level FlightAware ADS-B
Wed 11:19:59 PM 31.6880 -82.3600 344° North 434 499 35,000  Level FlightAware ADS-B
Wed 11:20:31 PM 31.7460 -82.3800 344° North 433 498 35,000  Level FlightAware ADS-B
Wed 11:21:07 PM 31.8170 -82.4050 343° North 434 499 35,000  Level FlightAware ADS-B
Wed 11:21:41 PM 31.8840 -82.4280 344° North 436 502 35,000  Level FlightAware ADS-B
Wed 11:22:18 PM 31.9550 -82.4530 343° North 436 502 35,000  Level FlightAware ADS-B
Wed 11:22:55 PM 32.0270 -82.4780 344° North 436 502 35,000  Level FlightAware ADS-B
Wed 11:23:25 PM 32.0850 -82.4980 344° North 437 503 35,000  Level FlightAware ADS-B
Wed 11:24:03 PM 32.1580 -82.5230 344° North 438 504 35,000  Level FlightAware ADS-B
Wed 11:24:37 PM 32.2240 -82.5460 344° North 438 504 35,000  Level FlightAware ADS-B
Wed 11:25:12 PM 32.2920 -82.5700 343° North 438 504 35,000  Level FlightAware ADS-B
Wed 11:25:49 PM 32.3650 -82.5960 343° North 439 505 35,000  Level FlightAware ADS-B
Wed 11:26:23 PM 32.4310 -82.6190 344° North 440 506 35,000  Level FlightAware ADS-B
Wed 11:26:55 PM 32.4930 -82.6410 343° North 441 507 35,000  Level FlightAware ADS-B
Wed 11:27:38 PM 32.5780 -82.6710 343° North 441 507 35,000  Level FlightAware ADS-B
Wed 11:28:16 PM 32.6500 -82.6970 343° North 442 509 35,000  Level FlightAware ADS-B
Wed 11:28:48 PM 32.7130 -82.7190 344° North 442 509 35,000  Level FlightAware ADS-B
Wed 11:29:26 PM 32.7900 -82.7460 344° North 442 509 35,000  Level FlightAware ADS-B
Wed 11:30:02 PM 32.8600 -82.7710 343° North 443 510 35,000  Level FlightAware ADS-B
Wed 11:30:34 PM 32.9230 -82.7930 344° North 442 509 35,000  Level FlightAware ADS-B
Wed 11:31:09 PM 32.9930 -82.8180 343° North 443 510 35,000  Level FlightAware ADS-B
Wed 11:31:46 PM 33.0630 -82.8430 343° North 442 509 35,000  Level FlightAware ADS-B
Wed 11:32:20 PM 33.1310 -82.8680 343° North 443 510 35,000  Level FlightAware ADS-B
Wed 11:32:56 PM 33.1980 -82.8920 343° North 443 510 35,000  Level FlightAware ADS-B
Wed 11:33:27 PM 33.2620 -82.9140 344° North 444 511 35,000  Level FlightAware ADS-B
Wed 11:34:05 PM 33.3350 -82.9410 343° North 443 510 35,000  Level FlightAware ADS-B
Wed 11:34:42 PM 33.4110 -82.9680 343° North 443 510 35,000  Level FlightAware ADS-B
Wed 11:35:14 PM 33.4740 -82.9910 343° North 443 510 35,000  Level FlightAware ADS-B
Wed 11:35:49 PM 33.5410 -83.0150 343° North 442 509 35,000  Level FlightAware ADS-B
Wed 11:36:26 PM 33.6130 -83.0410 343° North 442 509 35,000  Level FlightAware ADS-B
Wed 11:37:02 PM 33.6850 -83.0670 343° North 442 509 35,000  Level FlightAware ADS-B
Wed 11:37:33 PM 33.7440 -83.0880 344° North 441 507 35,000  Level FlightAware ADS-B
Wed 11:38:09 PM 33.8160 -83.1150 343° North 441 507 35,000  Level FlightAware ADS-B
Wed 11:38:46 PM 33.8910 -83.1420 343° North 442 509 35,000  Level FlightAware ADS-B
Wed 11:39:19 PM 33.9540 -83.1650 343° North 441 507 35,000  Level FlightAware ADS-B
Wed 11:39:56 PM 34.0270 -83.1920 343° North 440 506 35,000  Level FlightAware ADS-B
Wed 11:40:31 PM 34.0950 -83.2160 344° North 441 507 35,000  Level FlightAware ADS-B
Wed 11:41:00 PM 34.1523 -83.2373 343° North 441 507 35,000  Level FlightAware ADS-B
Wed 11:41:30 PM 34.2111 -83.2590 343° North 441 507 35,000  Level FlightAware ADS-B
Wed 11:42:10 PM 34.2889 -83.2875 343° North 441 507 35,000  Level FlightAware ADS-B
Wed 11:42:42 PM 34.3510 -83.3104 343° North 441 507 35,000  Level FlightAware ADS-B
Wed 11:43:29 PM 34.4424 -83.3441 343° North 440 506 35,000  Level FlightAware ADS-B
Wed 11:43:59 PM 34.5025 -83.3663 343° North 439 505 35,000  Level FlightAware ADS-B
Wed 11:44:30 PM 34.5622 -83.3885 343° North 439 505 35,000  Level FlightAware ADS-B
Wed 11:45:01 PM 34.6221 -83.4106 343° North 439 505 35,000  Level FlightAware ADS-B
Wed 11:45:43 PM 34.7020 -83.4400 343° North 439 505 35,000  Level FlightAware ADS-B
Wed 11:46:00 PM 34.7378 -83.4537 343° North 439 505 35,000  Level FlightAware ADS-B
Wed 11:46:31 PM 34.7965 -83.4755 343° North 439 505 35,000  Level FlightAware ADS-B
Wed 11:47:01 PM 34.8552 -83.4992 342° North 439 505 35,000  Level FlightAware ADS-B
Wed 11:47:31 PM 34.9127 -83.5254 340° North 438 504 35,000  Level FlightAware ADS-B
Wed 11:48:02 PM 34.9712 -83.5542 338° Northwest 439 505 35,000  Level FlightAware ADS-B
Wed 11:48:40 PM 35.0408 -83.5895 337° Northwest 438 504 35,000  Level FlightAware ADS-B
Wed 11:49:17 PM 35.1112 -83.6255 337° Northwest 438 504 35,000  Level FlightAware ADS-B
Wed 11:49:47 PM 35.1671 -83.6542 337° Northwest 436 502 35,000  Level FlightAware ADS-B
Wed 11:50:18 PM 35.2238 -83.6831 337° Northwest 435 501 35,000  Level FlightAware ADS-B
Wed 11:50:52 PM 35.2875 -83.7154 338° Northwest 435 501 35,000  Level FlightAware ADS-B
Wed 11:51:24 PM 35.3476 -83.7459 338° Northwest 436 502 35,000  Level FlightAware ADS-B
Wed 11:51:55 PM 35.4050 -83.7749 338° Northwest 436 502 35,000  Level FlightAware ADS-B
Wed 11:52:32 PM 35.4726 -83.8093 337° Northwest 435 501 35,000  Level FlightAware ADS-B
Wed 11:53:02 PM 35.5292 -83.8380 338° Northwest 436 502 35,000  Level FlightAware ADS-B
Wed 11:53:33 PM 35.5877 -83.8677 338° Northwest 438 504 35,000  Level FlightAware ADS-B
Wed 11:54:05 PM 35.6465 -83.8978 337° Northwest 438 504 35,000  Level FlightAware ADS-B
Wed 11:54:36 PM 35.7057 -83.9281 337° Northwest 439 505 35,000  Level FlightAware ADS-B
Wed 11:55:06 PM 35.7623 -83.9571 337° Northwest 439 505 35,000  Level FlightAware ADS-B
Wed 11:55:38 PM 35.8220 -83.9877 337° Northwest 440 506 35,000  Level FlightAware ADS-B
Wed 11:56:10 PM 35.8813 -84.0182 337° Northwest 441 507 35,000  Level FlightAware ADS-B
Wed 11:56:41 PM 35.9396 -84.0483 337° Northwest 441 507 35,000  Level FlightAware ADS-B
Wed 11:57:11 PM 35.9962 -84.0773 337° Northwest 442 509 35,000  Level FlightAware ADS-B
Wed 11:57:42 PM 36.0545 -84.1076 337° Northwest 443 510 35,000 -393 Level FlightAware ADS-B
Wed 11:58:12 PM 36.1127 -84.1376 337° Northwest 446 513 34,600 -1,594 Descending FlightAware ADS-B
Wed 11:58:46 PM 36.1758 -84.1706 337° Northwest 442 509 33,300 -2,156 Descending FlightAware ADS-B
Wed 11:59:16 PM 36.2331 -84.1998 338° Northwest 435 501 32,300 -2,066 Descending FlightAware ADS-B
Wed 11:59:47 PM 36.2895 -84.2291 337° Northwest 429 494 31,200 -2,032 Descending FlightAware ADS-B
Thu 12:00:18 AM 36.3456 -84.2586 337° Northwest 422 486 30,200 -1,180 Descending FlightAware ADS-B
Thu 12:00:48 AM 36.3987 -84.2865 337° Northwest 413 475 30,000 -197 Descending FlightAware ADS-B
Thu 12:01:19 AM 36.4531 -84.3149 337° Northwest 421 484 30,000  Level FlightAware ADS-B
Thu 12:01:49 AM 36.5084 -84.3437 337° Northwest 429 494 30,000  Level FlightAware ADS-B
Thu 12:02:19 AM 36.5641 -84.3728 337° Northwest 433 498 30,000  Level FlightAware ADS-B
Thu 12:02:49 AM 36.6200 -84.4021 337° Northwest 435 501 30,000  Level FlightAware ADS-B
Thu 12:03:19 AM 36.6752 -84.4312 337° Northwest 422 486 30,000 -590 Level FlightAware ADS-B
Thu 12:03:50 AM 36.7287 -84.4593 337° Northwest 405 466 29,400 -1,548 Descending FlightAware ADS-B
Thu 12:04:21 AM 36.7808 -84.4867 337° Northwest 399 459 28,400 554 Descending FlightAware ADS-B
Thu 12:04:55 AM 36.8190 -84.5070 337° Northwest 427 491 30,000 -2,000 Climbing FlightAware ADS-B
Thu 12:05:09 AM 36.8617 -84.5296 337° Northwest 393 452 26,800 -5,727 Descending FlightAware ADS-B
Thu 12:05:39 AM 36.9123 -84.5564 337° Northwest 385 443 25,800 -1,905 Descending FlightAware ADS-B
Thu 12:06:12 AM 36.9655 -84.5844 337° Northwest 380 437 24,800 -1,875 Descending FlightAware ADS-B
Thu 12:06:43 AM 37.0152 -84.6108 337° Northwest 375 432 23,800 -1,905 Descending FlightAware ADS-B
Thu 12:07:15 AM 37.0659 -84.6377 337° Northwest 370 426 22,800 -1,810 Descending FlightAware ADS-B
Thu 12:07:46 AM 37.1139 -84.6632 337° Northwest 366 421 21,900 -1,839 Descending FlightAware ADS-B
Thu 12:08:17 AM 37.1629 -84.6895 337° Northwest 362 417 20,900 -1,935 Descending FlightAware ADS-B
Thu 12:08:48 AM 37.2105 -84.7147 337° Northwest 360 414 19,900 -1,967 Descending FlightAware ADS-B
Thu 12:09:18 AM 37.2563 -84.7393 337° Northwest 359 413 18,900 -1,967 Descending FlightAware ADS-B
Thu 12:09:49 AM 37.3034 -84.7646 337° Northwest 359 413 17,900 -1,810 Descending FlightAware ADS-B
Thu 12:10:21 AM 37.3509 -84.7899 337° Northwest 355 409 17,000 -1,200 Descending FlightAware ADS-B
Thu 12:11:24 AM 37.4370 -84.8370 337° Northwest 350 403 16,000 -606 Descending FlightAware ADS-B
Thu 12:12:00 AM 37.4820 -84.8630 335° Northwest 350 403 16,000  Level FlightAware ADS-B
Thu 12:12:36 AM 37.5280 -84.8880 337° Northwest 350 403 16,000  Level FlightAware ADS-B
Thu 12:13:12 AM 37.5730 -84.9130 336° Northwest 350 403 16,000  Level FlightAware ADS-B
Thu 12:13:48 AM 37.6180 -84.9390 335° Northwest 350 403 16,000  Level FlightAware ADS-B
Thu 12:14:24 AM 37.6640 -84.9640 337° Northwest 350 403 16,000 -1,761 Level FlightAware ADS-B
Thu 12:18:58 AM 37.9220 -85.3080 314° West 231 266 6,900 -1,808 Descending FlightAware ADS-B
Thu 12:19:26 AM 37.9440 -85.3240 330° Northwest 231 266 6,900 -837 Level FlightAware ADS-B
Thu 12:20:24 AM 37.9620 -85.3920 289° West 219 252 5,700 -1,231 Descending FlightAware ADS-B
Thu 12:20:44 AM 37.9600 -85.4190 265° West 218 251 5,300 -1,143 Descending FlightAware ADS-B
Thu 12:21:06 AM 37.9590 -85.4470 267° West 215 247 4,900 -1,143 Descending FlightAware ADS-B
Thu 12:21:26 AM 37.9570 -85.4720 264° West 213 245 4,500 -1,091 Descending FlightAware ADS-B
Thu 12:21:50 AM 37.9550 -85.5020 265° West 211 243 4,100 -818 Descending FlightAware ADS-B
Thu 12:22:10 AM 37.9540 -85.5270 267° West 211 243 3,900 -375 Descending FlightAware ADS-B
Thu 12:22:22 AM 37.9540 -85.5400 270° West 213 245 3,900  Level FlightAware ADS-B
Thu 12:22:48 AM 37.9520 -85.5680 265° West 213 245 3,900 -844 Level FlightAware ADS-B
Thu 12:23:26 AM 37.9620 -85.6200 284° West 212 244 3,000 -909 Descending FlightAware ADS-B
Thu 12:23:54 AM 37.9820 -85.6440 317° Northwest 208 239 2,900 -240 Descending FlightAware ADS-B
Thu 12:24:16 AM 37.9990 -85.6610 322° Northwest 196 226 2,800  Descending FlightAware ADS-B
Thu 12:24:44 AM 38.0200 -85.6740 334° Northwest 191 220 2,900 125 Climbing FlightAware ADS-B
Thu 12:25:04 AM 38.0370 -85.6800 344° North 192 221 2,900 -450 Level FlightAware ADS-B
Thu 12:25:24 AM 38.0540 -85.6860 344° North 191 220 2,600 -955 Descending FlightAware ADS-B
Thu 12:25:48 AM 38.0730 -85.6920 346° North 170 196 2,200 -955 Descending FlightAware ADS-B
Thu 12:26:08 AM 38.0880 -85.6970 345° North 159 183 1,900 -900 Descending FlightAware ADS-B
Thu 12:26:28 AM 38.1020 -85.7020 344° North 159 183 1,600 -900 Descending FlightAware ADS-B
Thu 12:26:48 AM 38.1160 -85.7070 344° North 158 182 1,300 -833 Descending FlightAware ADS-B
Thu 12:27:04 AM 38.1280 -85.7110 345° North 157 181 1,100 -667 Descending FlightAware ADS-B
Thu 12:27:24 AM 38.1420 -85.7160 344° North 156 180 900 -732 Descending FlightAware ADS-B
Thu 12:27:45 AM 38.1560 -85.7210 344° North 148 170 600 -857 Descending FlightAware ADS-B
Thu 12:28:07 AM 38.1700 -85.7250 347° North 145 167 -1,636 Descending FlightAware ADS-B

Login

Don't have an account? Register now (free) for customized features, flight alerts, and more!